Time;durP1;ratioP1;P1;durP2;ratioP2;P2;SDS_P1;SDS_P2;PMS_P1;PMS_P2;Temp;Humidity;BMP_temperature;BMP_pressure;BME280_temperature;BME280_humidity;BME280_pressure;Samples;Min_cycle;Max_cycle;Signal;HPM_P1;HPM_P2
2022/08/31 00:04:07;;;;;;;2.22;2.02;;;22.90;47.80;;;;;;940049;149;27450;-75
2022/08/31 00:06:32;;;;;;;1.85;1.70;;;22.90;47.90;;;;;;939365;149;27438;-75
2022/08/31 00:08:59;;;;;;;1.98;1.77;;;23.00;48.00;;;;;;939687;149;27812;-75
2022/08/31 00:11:29;;;;;;;2.35;1.77;;;23.00;48.30;;;;;;939210;149;27322;-75
2022/08/31 00:13:55;;;;;;;2.35;1.95;;;23.00;48.10;;;;;;940288;149;27396;-75
2022/08/31 00:16:21;;;;;;;2.60;2.40;;;23.10;48.20;;;;;;939896;149;27362;-75
2022/08/31 00:18:51;;;;;;;2.75;2.20;;;23.10;48.30;;;;;;939935;149;27371;-75
2022/08/31 00:21:15;;;;;;;1.90;1.80;;;23.10;48.30;;;;;;939585;149;27468;-75
2022/08/31 00:23:41;;;;;;;2.08;1.92;;;23.20;48.30;;;;;;940441;149;27256;-75
2022/08/31 00:26:08;;;;;;;1.90;1.80;;;23.20;48.30;;;;;;939772;149;27326;-75
2022/08/31 00:28:34;;;;;;;3.30;1.77;;;23.20;48.30;;;;;;940058;149;27354;-75
2022/08/31 00:31:01;;;;;;;1.90;1.80;;;23.20;48.30;;;;;;942396;148;27394;-75
2022/08/31 00:33:27;;;;;;;2.98;2.20;;;23.20;48.30;;;;;;945608;148;27977;-75
2022/08/31 00:35:54;;;;;;;2.33;1.70;;;23.20;48.30;;;;;;946669;148;27356;-75
2022/08/31 00:38:21;;;;;;;2.27;2.08;;;23.20;48.40;;;;;;945178;148;27364;-75
2022/08/31 00:40:47;;;;;;;2.25;1.95;;;23.20;48.40;;;;;;947139;148;27389;-75
2022/08/31 00:43:35;;;;;;;2.02;1.80;;;23.20;48.40;;;;;;946319;148;27326;-75
2022/08/31 00:46:02;;;;;;;2.20;2.00;;;23.30;48.50;;;;;;932839;148;27341;-75
2022/08/31 00:48:29;;;;;;;2.45;1.98;;;23.20;48.30;;;;;;946426;148;27404;-75
2022/08/31 00:50:55;;;;;;;1.82;1.72;;;23.20;48.40;;;;;;946637;148;27328;-75
2022/08/31 00:53:22;;;;;;;1.77;1.67;;;23.20;48.40;;;;;;946529;148;27267;-75
2022/08/31 00:55:48;;;;;;;3.22;2.25;;;23.10;48.50;;;;;;946514;148;27364;-74
2022/08/31 00:58:15;;;;;;;4.10;1.87;;;23.10;48.50;;;;;;946072;148;27810;-75
2022/08/31 01:00:42;;;;;;;2.95;2.45;;;23.10;48.60;;;;;;946559;148;27275;-75
2022/08/31 01:03:08;;;;;;;2.60;2.00;;;23.00;48.70;;;;;;946078;148;27329;-75
2022/08/31 01:05:35;;;;;;;2.17;1.95;;;22.90;48.80;;;;;;947048;148;27330;-75
2022/08/31 01:08:01;;;;;;;2.77;1.87;;;22.90;48.90;;;;;;947718;148;27442;-75
2022/08/31 01:10:28;;;;;;;2.25;1.92;;;22.90;49.00;;;;;;946343;148;27372;-75
2022/08/31 01:12:55;;;;;;;3.65;1.80;;;22.80;49.00;;;;;;945624;148;27439;-75
2022/08/31 01:15:21;;;;;;;2.65;2.33;;;22.80;49.10;;;;;;945904;148;27342;-75
2022/08/31 01:17:48;;;;;;;2.10;1.90;;;22.70;49.30;;;;;;946858;148;27360;-75
2022/08/31 01:20:32;;;;;;;2.30;1.90;;;22.70;49.40;;;;;;946145;148;28046;-75
2022/08/31 01:23:08;;;;;;;2.08;1.87;;;22.60;50.10;;;;;;946482;148;27449;-75
2022/08/31 01:25:34;;;;;;;2.20;2.00;;;22.60;49.40;;;;;;946600;148;27440;-75
2022/08/31 01:28:01;;;;;;;1.95;1.80;;;22.50;49.50;;;;;;946087;148;27350;-75
2022/08/31 01:30:28;;;;;;;2.67;2.25;;;22.50;49.60;;;;;;945292;148;27391;-74
2022/08/31 01:32:54;;;;;;;2.62;2.40;;;22.40;49.80;;;;;;945510;148;27397;-75
2022/08/31 01:35:21;;;;;;;2.40;2.20;;;22.40;50.00;;;;;;942951;148;27830;-75
2022/08/31 01:37:47;;;;;;;2.60;2.40;;;22.40;50.00;;;;;;942324;148;27369;-75
2022/08/31 01:40:14;;;;;;;2.30;2.10;;;22.40;50.20;;;;;;942417;148;27431;-75
2022/08/31 01:42:41;;;;;;;2.50;2.27;;;22.30;50.20;;;;;;942954;148;27353;-75
2022/08/31 01:45:08;;;;;;;2.40;2.20;;;22.30;50.30;;;;;;942653;148;27322;-75
2022/08/31 01:47:34;;;;;;;3.72;2.08;;;22.30;50.30;;;;;;943061;148;27346;-75
2022/08/31 01:50:01;;;;;;;2.37;2.15;;;22.30;50.40;;;;;;942137;148;27487;-75
2022/08/31 01:52:27;;;;;;;1.80;1.70;;;22.30;50.50;;;;;;943331;148;27435;-75
2022/08/31 01:54:54;;;;;;;2.58;2.25;;;22.20;50.50;;;;;;942841;148;27876;-74
2022/08/31 01:57:20;;;;;;;2.80;2.35;;;22.20;50.70;;;;;;942912;148;27318;-75
2022/08/31 01:59:47;;;;;;;1.98;1.85;;;22.20;50.80;;;;;;942597;148;27428;-75
2022/08/31 02:02:14;;;;;;;2.33;2.12;;;22.20;50.90;;;;;;943447;148;27745;-75
2022/08/31 02:04:40;;;;;;;2.10;2.00;;;22.20;51.00;;;;;;942798;148;27450;-75
2022/08/31 02:07:07;;;;;;;2.27;2.08;;;22.10;51.00;;;;;;943495;148;27323;-75
2022/08/31 02:09:33;;;;;;;1.98;1.87;;;22.10;51.10;;;;;;941922;148;27334;-75
2022/08/31 02:12:00;;;;;;;2.25;2.05;;;22.10;51.20;;;;;;941801;148;27393;-75
2022/08/31 02:14:27;;;;;;;2.00;1.90;;;22.10;51.30;;;;;;943396;148;27431;-75
2022/08/31 02:16:53;;;;;;;2.62;2.15;;;22.10;51.40;;;;;;942657;148;27350;-75
2022/08/31 02:19:20;;;;;;;3.35;2.15;;;22.00;51.40;;;;;;943115;148;27325;-74
2022/08/31 02:21:46;;;;;;;2.33;2.22;;;22.00;51.50;;;;;;942779;148;27450;-74
2022/08/31 02:24:13;;;;;;;2.00;1.90;;;22.00;51.70;;;;;;943019;148;27364;-75
2022/08/31 02:26:40;;;;;;;2.50;2.30;;;22.00;51.70;;;;;;942809;148;27427;-74
2022/08/31 02:29:06;;;;;;;2.30;2.10;;;22.00;51.80;;;;;;942959;148;27366;-75
2022/08/31 02:31:33;;;;;;;4.08;2.10;;;22.00;51.90;;;;;;943001;148;27797;-75
2022/08/31 02:33:59;;;;;;;2.17;2.08;;;22.00;52.00;;;;;;943292;148;27354;-74
2022/08/31 02:36:26;;;;;;;2.65;2.33;;;22.00;52.00;;;;;;943966;149;27274;-75
2022/08/31 02:38:52;;;;;;;2.40;2.20;;;22.00;52.10;;;;;;943484;148;27376;-75
2022/08/31 02:41:19;;;;;;;1.92;1.82;;;22.00;52.20;;;;;;943359;148;27386;-74
2022/08/31 02:43:46;;;;;;;2.40;2.17;;;22.00;52.20;;;;;;943636;148;27354;-74
2022/08/31 02:46:12;;;;;;;2.22;2.05;;;22.00;52.40;;;;;;943273;148;29030;-74
2022/08/31 02:48:39;;;;;;;2.35;2.10;;;22.00;52.50;;;;;;943452;148;27345;-75
2022/08/31 02:51:05;;;;;;;2.42;2.22;;;21.90;52.50;;;;;;943732;148;27418;-75
2022/08/31 02:53:32;;;;;;;2.25;2.05;;;22.00;52.60;;;;;;942739;148;27410;-74
2022/08/31 02:55:59;;;;;;;2.70;2.22;;;22.00;52.60;;;;;;943467;148;27434;-74
2022/08/31 02:58:25;;;;;;;6.10;2.30;;;22.00;52.70;;;;;;943544;149;27361;-74
2022/08/31 03:00:52;;;;;;;2.87;2.20;;;22.00;52.80;;;;;;943073;148;27361;-75
2022/08/31 03:03:19;;;;;;;2.25;2.05;;;22.00;52.80;;;;;;943861;148;27740;-75
2022/08/31 03:05:45;;;;;;;2.05;1.92;;;22.00;52.90;;;;;;943772;149;27345;-75
2022/08/31 03:08:12;;;;;;;2.17;1.98;;;22.00;52.90;;;;;;943909;148;27329;-75
2022/08/31 03:10:38;;;;;;;2.05;1.95;;;22.00;52.90;;;;;;942919;149;27376;-75
2022/08/31 03:13:05;;;;;;;2.10;2.00;;;22.00;52.90;;;;;;944056;149;27335;-75
2022/08/31 03:15:31;;;;;;;3.08;2.15;;;22.00;52.90;;;;;;943705;149;27423;-75
2022/08/31 03:17:58;;;;;;;1.85;1.75;;;22.10;53.00;;;;;;943266;149;27326;-74
2022/08/31 03:34:29;;;;;;;2.85;2.47;;;22.00;53.00;;;;;;942671;148;27866;-75
2022/08/31 03:36:55;;;;;;;2.67;2.20;;;22.00;53.10;;;;;;942483;148;27409;-75
2022/08/31 03:39:22;;;;;;;2.50;2.20;;;22.00;53.20;;;;;;942686;148;27357;-75
2022/08/31 03:41:48;;;;;;;2.92;2.05;;;22.00;53.30;;;;;;942494;148;27466;-75
2022/08/31 03:44:15;;;;;;;3.20;2.22;;;22.00;53.30;;;;;;941818;148;27322;-75
2022/08/31 03:46:43;;;;;;;2.30;2.10;;;22.00;53.40;;;;;;943070;148;27345;-75
2022/08/31 03:49:11;;;;;;;2.60;2.33;;;22.00;53.50;;;;;;942102;148;27388;-75
2022/08/31 03:51:35;;;;;;;2.75;2.40;;;21.90;53.50;;;;;;942683;148;27506;-75
2022/08/31 03:54:01;;;;;;;2.65;2.30;;;21.90;53.60;;;;;;943154;148;27782;-75
2022/08/31 03:56:28;;;;;;;2.77;1.95;;;21.90;53.60;;;;;;942639;148;27397;-74
2022/08/31 03:58:55;;;;;;;2.58;2.37;;;21.90;53.70;;;;;;942408;148;27667;-75
2022/08/31 04:01:21;;;;;;;2.98;2.25;;;21.90;53.80;;;;;;943322;148;27436;-75
2022/08/31 04:03:48;;;;;;;2.10;1.92;;;21.90;53.90;;;;;;942982;148;27358;-75
2022/08/31 04:06:14;;;;;;;3.90;2.17;;;21.90;53.90;;;;;;943073;148;27851;-74
2022/08/31 04:08:41;;;;;;;2.65;2.45;;;21.80;53.80;;;;;;942407;148;27322;-74
2022/08/31 04:11:10;;;;;;;2.42;2.22;;;21.80;53.90;;;;;;942227;148;27326;-75
2022/08/31 04:13:37;;;;;;;2.30;2.15;;;21.80;54.00;;;;;;942745;148;27314;-75
2022/08/31 04:16:06;;;;;;;2.52;1.92;;;21.80;54.10;;;;;;943016;148;27955;-75
2022/08/31 04:18:30;;;;;;;4.50;2.20;;;21.80;54.30;;;;;;942192;148;27459;-75
2022/08/31 04:20:57;;;;;;;2.95;2.20;;;21.80;54.90;;;;;;943185;147;27279;-75
2022/08/31 04:23:28;;;;;;;2.17;1.98;;;21.80;54.40;;;;;;942559;148;27306;-74
2022/08/31 04:25:50;;;;;;;3.05;2.58;;;21.80;54.50;;;;;;942636;148;27329;-74
2022/08/31 04:28:16;;;;;;;2.62;2.25;;;21.70;54.50;;;;;;942645;148;27333;-74
2022/08/31 04:30:43;;;;;;;2.83;2.62;;;21.70;54.50;;;;;;927121;150;27364;-75
2022/08/31 04:33:10;;;;;;;2.85;2.30;;;21.80;54.60;;;;;;940999;149;27501;-75
2022/08/31 04:35:36;;;;;;;3.22;2.52;;;21.80;54.60;;;;;;938623;149;27412;-74
2022/08/31 04:38:03;;;;;;;2.70;2.42;;;21.80;54.60;;;;;;936534;150;27255;-75
2022/08/31 04:40:29;;;;;;;2.50;2.22;;;21.80;54.60;;;;;;936932;150;27428;-75
2022/08/31 04:42:56;;;;;;;2.67;2.45;;;21.80;54.60;;;;;;937006;150;27451;-75
2022/08/31 04:45:23;;;;;;;2.42;2.22;;;21.80;54.70;;;;;;935991;150;27344;-74
2022/08/31 04:47:49;;;;;;;2.77;2.30;;;21.80;54.70;;;;;;936416;150;27251;-74
2022/08/31 04:50:16;;;;;;;2.80;2.60;;;21.80;54.90;;;;;;936395;150;27424;-74
2022/08/31 04:52:43;;;;;;;3.00;2.75;;;21.80;54.90;;;;;;936661;150;27400;-75
2022/08/31 04:55:09;;;;;;;3.25;2.62;;;21.80;55.00;;;;;;937189;150;27343;-75
2022/08/31 04:57:37;;;;;;;2.37;2.25;;;21.80;55.00;;;;;;936522;150;27469;-75
2022/08/31 05:00:02;;;;;;;2.65;2.30;;;21.80;55.10;;;;;;936901;150;27324;-75
2022/08/31 05:02:48;;;;;;;2.75;2.55;;;21.80;55.10;;;;;;936480;150;27353;-74
2022/08/31 05:05:15;;;;;;;2.30;2.10;;;21.80;55.20;;;;;;933609;150;27478;-75
2022/08/31 05:07:42;;;;;;;3.75;2.67;;;21.80;55.30;;;;;;907072;155;27409;-75
2022/08/31 05:10:08;;;;;;;2.95;2.37;;;21.80;55.30;;;;;;936419;149;27378;-75
2022/08/31 05:12:35;;;;;;;2.47;2.27;;;21.90;55.30;;;;;;930884;150;27339;-74
2022/08/31 05:15:01;;;;;;;2.27;2.08;;;21.80;55.30;;;;;;933487;150;27473;-75
2022/08/31 05:17:28;;;;;;;3.52;2.77;;;21.80;55.50;;;;;;931133;150;27391;-75
2022/08/31 05:19:54;;;;;;;2.40;2.20;;;21.80;55.40;;;;;;933388;150;27470;-74
2022/08/31 05:22:21;;;;;;;2.65;2.45;;;21.80;55.50;;;;;;918449;152;27373;-75
2022/08/31 05:24:48;;;;;;;4.00;2.40;;;21.90;55.50;;;;;;917759;152;27482;-75
2022/08/31 05:27:15;;;;;;;2.45;2.27;;;21.80;55.50;;;;;;917190;152;27478;-75
2022/08/31 05:29:41;;;;;;;2.75;2.50;;;21.80;55.50;;;;;;936493;149;27467;-75
2022/08/31 05:32:07;;;;;;;2.75;2.55;;;21.90;55.50;;;;;;932665;150;27496;-75
2022/08/31 05:34:34;;;;;;;2.67;2.47;;;21.90;55.50;;;;;;929355;150;27463;-75
2022/08/31 05:37:01;;;;;;;3.83;2.98;;;21.90;55.70;;;;;;933426;150;27356;-74
2022/08/31 05:39:29;;;;;;;4.85;3.75;;;21.90;55.80;;;;;;931114;150;27507;-75
2022/08/31 05:41:54;;;;;;;2.77;2.50;;;21.80;55.80;;;;;;924145;151;27439;-74
2022/08/31 05:44:20;;;;;;;2.55;2.35;;;21.90;55.90;;;;;;922444;153;27427;-74
2022/08/31 05:46:47;;;;;;;2.55;2.35;;;21.80;55.80;;;;;;922447;152;28050;-75
2022/08/31 05:49:14;;;;;;;3.20;2.40;;;21.80;55.80;;;;;;885068;157;27524;-75
2022/08/31 05:51:40;;;;;;;3.02;2.45;;;21.80;55.80;;;;;;891904;157;27824;-75
2022/08/31 05:54:07;;;;;;;3.27;2.47;;;21.80;55.90;;;;;;922848;152;27485;-75
2022/08/31 05:56:34;;;;;;;2.65;2.45;;;21.80;56.00;;;;;;922779;152;27386;-75
2022/08/31 05:59:00;;;;;;;4.75;2.80;;;21.80;56.10;;;;;;922026;152;27370;-74
2022/08/31 06:01:29;;;;;;;3.70;2.83;;;21.80;56.20;;;;;;922959;152;27362;-74
2022/08/31 06:03:53;;;;;;;3.00;2.80;;;21.80;56.20;;;;;;922701;152;27400;-74
2022/08/31 06:06:20;;;;;;;5.42;2.67;;;21.80;56.20;;;;;;906069;155;27478;-75
2022/08/31 06:08:46;;;;;;;2.70;2.55;;;21.80;56.30;;;;;;905712;155;27516;-75
2022/08/31 06:11:18;;;;;;;3.77;2.62;;;21.80;56.40;;;;;;905923;155;27415;-75
2022/08/31 06:13:40;;;;;;;2.77;2.55;;;21.80;56.40;;;;;;904469;155;27397;-75
2022/08/31 06:16:07;;;;;;;3.02;2.72;;;21.80;56.80;;;;;;906149;155;27920;-75
2022/08/31 06:18:33;;;;;;;2.90;2.60;;;21.80;56.50;;;;;;920701;153;27346;-74
2022/08/31 06:21:07;;;;;;;2.67;2.45;;;21.90;56.50;;;;;;935837;150;27395;-75
2022/08/31 06:23:31;;;;;;;3.85;2.58;;;21.90;56.50;;;;;;939227;150;27386;-75
2022/08/31 06:26:01;;;;;;;6.12;2.80;;;21.90;56.60;;;;;;938197;150;27350;-75
2022/08/31 06:28:31;;;;;;;3.08;2.60;;;21.90;56.60;;;;;;921301;153;27340;-75
2022/08/31 06:30:54;;;;;;;3.17;2.85;;;21.90;56.70;;;;;;921617;152;27379;-74
2022/08/31 06:33:20;;;;;;;2.85;2.40;;;22.00;56.80;;;;;;922093;153;27482;-74
2022/08/31 06:35:47;;;;;;;4.08;2.72;;;22.00;56.90;;;;;;921925;153;27364;-75
2022/08/31 06:38:14;;;;;;;5.45;2.45;;;22.00;56.80;;;;;;921698;152;27383;-75
2022/08/31 06:40:40;;;;;;;3.87;2.77;;;22.10;56.90;;;;;;921982;153;27885;-74
2022/08/31 06:43:07;;;;;;;3.35;2.62;;;22.10;56.90;;;;;;921817;153;27949;-75
2022/08/31 06:45:33;;;;;;;4.65;2.62;;;22.10;57.00;;;;;;921587;153;27389;-75
2022/08/31 06:48:02;;;;;;;2.58;2.37;;;22.20;57.00;;;;;;921365;152;27464;-75
2022/08/31 06:50:26;;;;;;;3.42;2.60;;;22.20;57.00;;;;;;921404;153;27442;-75
2022/08/31 06:52:54;;;;;;;2.75;2.55;;;22.30;57.00;;;;;;920588;153;27369;-75
2022/08/31 06:55:20;;;;;;;2.45;2.25;;;22.30;57.00;;;;;;920921;153;27333;-75
2022/08/31 06:57:46;;;;;;;2.87;2.67;;;22.30;57.00;;;;;;921494;152;27399;-75
2022/08/31 07:00:13;;;;;;;2.83;2.62;;;22.40;57.00;;;;;;921971;152;27400;-75
2022/08/31 07:02:39;;;;;;;2.92;2.72;;;22.40;56.90;;;;;;921164;153;27314;-75
2022/08/31 07:05:06;;;;;;;2.37;2.27;;;22.50;56.90;;;;;;917883;154;27448;-75
2022/08/31 07:07:33;;;;;;;3.33;2.55;;;22.60;56.90;;;;;;914190;154;27382;-75
2022/08/31 07:09:59;;;;;;;3.70;2.90;;;22.60;56.90;;;;;;913997;154;27754;-75
2022/08/31 07:12:26;;;;;;;3.45;2.62;;;22.70;56.90;;;;;;914119;154;27490;-75
2022/08/31 07:14:52;;;;;;;3.55;2.72;;;22.80;56.80;;;;;;914398;157;28687;-75
2022/08/31 07:17:19;;;;;;;3.95;2.60;;;22.80;56.60;;;;;;913991;154;27444;-75
2022/08/31 07:19:46;;;;;;;4.35;2.62;;;22.90;56.50;;;;;;914257;154;28110;-75
2022/08/31 07:22:12;;;;;;;4.28;2.58;;;23.00;56.60;;;;;;914624;154;27463;-75
2022/08/31 07:24:39;;;;;;;2.87;2.47;;;23.00;56.40;;;;;;914114;154;27389;-75
2022/08/31 07:27:17;;;;;;;6.35;2.85;;;23.10;56.40;;;;;;914409;154;27397;-75
2022/08/31 07:29:40;;;;;;;5.33;2.75;;;23.10;56.30;;;;;;913254;154;27422;-75
2022/08/31 07:32:07;;;;;;;4.37;2.75;;;23.20;56.30;;;;;;914194;154;27400;-75
2022/08/31 07:34:34;;;;;;;3.72;2.60;;;23.20;56.30;;;;;;913928;154;27483;-75
2022/08/31 07:42:29;;;;;;;4.03;2.33;;;23.50;56.20;;;;;;914497;155;27418;-75
2022/08/31 07:44:56;;;;;;;4.33;2.62;;;23.60;56.10;;;;;;913969;154;27354;-75
2022/08/31 07:47:24;;;;;;;4.90;3.12;;;23.60;56.00;;;;;;913731;154;27484;-75
2022/08/31 07:49:50;;;;;;;4.08;2.65;;;23.70;55.90;;;;;;913826;154;27386;-75
2022/08/31 07:52:35;;;;;;;3.05;2.42;;;23.80;55.80;;;;;;913531;154;28339;-75
2022/08/31 07:55:06;;;;;;;3.05;2.70;;;23.90;55.80;;;;;;942390;149;27496;-75
2022/08/31 07:57:29;;;;;;;6.60;2.52;;;24.00;55.60;;;;;;938675;148;27427;-75
2022/08/31 08:00:07;;;;;;;3.87;2.75;;;24.00;55.40;;;;;;952473;148;27319;-75
2022/08/31 08:02:22;;;;;;;3.80;2.42;;;24.10;55.30;;;;;;952436;148;27403;-75
2022/08/31 08:04:52;;;;;;;3.17;2.65;;;24.20;55.10;;;;;;955378;147;27305;-75
2022/08/31 08:07:16;;;;;;;3.00;2.75;;;24.20;55.00;;;;;;950327;148;27386;-75
2022/08/31 08:09:42;;;;;;;12.18;2.85;;;24.20;54.90;;;;;;945426;149;27424;-75
2022/08/31 08:12:08;;;;;;;2.27;2.17;;;24.30;55.00;;;;;;937396;150;27677;-75
2022/08/31 08:14:35;;;;;;;2.95;2.75;;;24.30;54.80;;;;;;938115;151;27418;-75
2022/08/31 08:17:01;;;;;;;2.67;2.47;;;24.30;54.80;;;;;;948396;149;27390;-75
2022/08/31 08:19:28;;;;;;;2.65;2.45;;;24.40;54.70;;;;;;948073;149;27381;-75
2022/08/31 08:21:54;;;;;;;2.35;2.20;;;24.40;54.60;;;;;;948636;149;27401;-75
2022/08/31 08:24:21;;;;;;;2.65;2.30;;;24.40;54.60;;;;;;947994;149;27829;-75
2022/08/31 08:26:48;;;;;;;3.25;2.22;;;24.40;54.60;;;;;;945686;149;27323;-75
2022/08/31 08:29:14;;;;;;;2.45;2.25;;;24.50;54.60;;;;;;945624;149;27394;-75
2022/08/31 08:31:41;;;;;;;3.27;2.50;;;24.50;54.60;;;;;;946587;149;27319;-75
2022/08/31 08:34:07;;;;;;;2.98;2.67;;;24.50;54.50;;;;;;946828;149;27322;-75
2022/08/31 08:36:39;;;;;;;2.85;2.65;;;24.50;54.50;;;;;;947586;149;27404;-75
2022/08/31 08:39:01;;;;;;;2.80;2.52;;;24.60;54.50;;;;;;945885;149;27337;-75
2022/08/31 08:41:27;;;;;;;3.45;2.55;;;24.60;54.40;;;;;;943738;147;27388;-75
2022/08/31 08:43:54;;;;;;;2.30;2.20;;;24.70;54.40;;;;;;943416;149;27708;-75
2022/08/31 08:46:32;;;;;;;3.10;2.52;;;24.70;54.30;;;;;;943139;149;27297;-75
2022/08/31 08:48:59;;;;;;;2.58;2.37;;;24.70;54.30;;;;;;944217;149;27414;-75
2022/08/31 08:51:25;;;;;;;3.05;2.75;;;24.70;54.20;;;;;;940194;149;27344;-75
2022/08/31 08:53:53;;;;;;;3.17;2.25;;;24.80;54.20;;;;;;939243;149;27756;-75
2022/08/31 08:56:19;;;;;;;2.30;2.20;;;24.80;54.10;;;;;;940679;149;27445;-75
2022/08/31 08:58:45;;;;;;;2.67;2.47;;;24.80;54.00;;;;;;940693;149;27282;-75
2022/08/31 09:01:12;;;;;;;2.45;2.25;;;24.80;54.00;;;;;;939457;149;27368;-75
2022/08/31 09:03:41;;;;;;;2.83;2.62;;;24.80;54.00;;;;;;936751;149;27425;-75
2022/08/31 09:06:13;;;;;;;3.12;2.40;;;24.80;53.90;;;;;;943259;149;27443;-75
2022/08/31 09:09:16;;;;;;;2.85;2.25;;;24.80;53.90;;;;;;931904;151;27318;-75
2022/08/31 09:11:45;;;;;;;2.42;2.22;;;24.80;53.90;;;;;;929385;151;27330;-75
2022/08/31 09:14:23;;;;;;;2.72;2.50;;;24.80;53.90;;;;;;930187;151;27433;-75
2022/08/31 09:16:57;;;;;;;2.60;2.40;;;24.80;53.80;;;;;;929558;152;27384;-75
2022/08/31 09:19:23;;;;;;;3.00;2.80;;;24.90;54.00;;;;;;928462;151;27392;-75
2022/08/31 09:21:56;;;;;;;2.50;2.30;;;24.90;54.00;;;;;;932937;151;27841;-75
2022/08/31 09:24:25;;;;;;;2.85;2.65;;;24.90;54.20;;;;;;930045;151;27415;-75
2022/08/31 09:27:03;;;;;;;3.00;2.33;;;25.00;54.10;;;;;;932423;151;27344;-75
2022/08/31 09:29:25;;;;;;;2.47;2.27;;;25.20;54.00;;;;;;939924;149;27373;-75
2022/08/31 09:32:05;;;;;;;4.28;2.60;;;25.30;54.00;;;;;;933100;151;27343;-75
2022/08/31 09:34:30;;;;;;;2.75;2.55;;;25.40;53.80;;;;;;942024;149;27372;-75
2022/08/31 09:37:14;;;;;;;3.75;2.47;;;25.50;53.60;;;;;;931167;148;27331;-75
2022/08/31 09:39:36;;;;;;;3.98;2.20;;;25.60;53.60;;;;;;937943;149;27756;-75
2022/08/31 09:42:02;;;;;;;2.50;2.20;;;25.70;53.40;;;;;;933166;149;27417;-75
2022/08/31 09:44:31;;;;;;;2.02;1.92;;;25.90;53.40;;;;;;927593;151;27452;-75
2022/08/31 09:47:00;;;;;;;3.25;2.65;;;26.00;53.20;;;;;;931026;148;27407;-75
2022/08/31 09:49:35;;;;;;;2.83;2.55;;;26.10;53.00;;;;;;930934;151;27438;-75
2022/08/31 09:52:20;;;;;;;2.58;2.27;;;26.20;52.80;;;;;;932182;150;27474;-75
2022/08/31 09:57:40;;;;;;;2.27;2.15;;;26.40;52.40;;;;;;937336;150;27427;-75
2022/08/31 10:00:07;;;;;;;2.92;2.10;;;26.40;52.10;;;;;;933862;150;27332;-76
2022/08/31 10:02:36;;;;;;;2.35;2.22;;;26.40;52.00;;;;;;936883;150;27452;-76
2022/08/31 10:05:02;;;;;;;2.47;2.27;;;26.50;52.00;;;;;;937837;150;27431;-75
2022/08/31 10:07:51;;;;;;;3.30;2.62;;;26.50;51.90;;;;;;938132;150;27311;-75
2022/08/31 10:10:26;;;;;;;2.42;2.22;;;26.50;51.80;;;;;;934556;150;27341;-75
2022/08/31 10:13:05;;;;;;;2.70;2.50;;;26.50;51.70;;;;;;937967;149;27406;-76
2022/08/31 10:15:52;;;;;;;2.40;2.15;;;26.50;51.70;;;;;;940245;150;27357;-76
2022/08/31 10:18:28;;;;;;;2.80;2.45;;;26.50;51.60;;;;;;939105;150;27453;-75
2022/08/31 10:20:58;;;;;;;2.20;2.02;;;26.60;51.50;;;;;;937712;149;28463;-76
2022/08/31 10:23:26;;;;;;;2.60;2.40;;;26.60;51.40;;;;;;934141;149;27361;-76
2022/08/31 10:25:57;;;;;;;2.25;2.12;;;26.50;51.30;;;;;;936626;150;27397;-75
2022/08/31 10:28:31;;;;;;;3.87;2.42;;;26.50;51.20;;;;;;938784;150;27456;-75
2022/08/31 10:30:58;;;;;;;2.30;2.10;;;26.50;51.20;;;;;;937253;150;27338;-76
2022/08/31 10:33:24;;;;;;;1.82;1.75;;;26.50;51.30;;;;;;937085;150;27374;-76
2022/08/31 10:35:51;;;;;;;2.83;2.27;;;26.50;51.30;;;;;;931481;148;27359;-76
2022/08/31 10:38:35;;;;;;;2.47;2.27;;;26.60;51.30;;;;;;938709;149;27361;-76
2022/08/31 10:41:11;;;;;;;3.02;2.42;;;26.60;51.20;;;;;;938602;150;27474;-75
2022/08/31 10:43:49;;;;;;;2.90;2.70;;;26.60;51.10;;;;;;937718;149;27307;-76
2022/08/31 10:46:16;;;;;;;2.90;2.60;;;26.60;51.10;;;;;;935837;150;27349;-75
2022/08/31 10:48:53;;;;;;;2.60;2.37;;;26.70;51.00;;;;;;937178;149;27433;-75
2022/08/31 10:51:21;;;;;;;3.22;2.22;;;26.70;51.00;;;;;;934811;150;27371;-75
2022/08/31 10:53:53;;;;;;;4.50;2.30;;;26.70;51.00;;;;;;934648;149;27363;-76
2022/08/31 10:56:19;;;;;;;3.52;2.42;;;26.80;51.00;;;;;;929921;150;27428;-75
2022/08/31 10:59:13;;;;;;;5.12;2.08;;;26.80;50.90;;;;;;947560;148;27336;-75
2022/08/31 11:04:51;;;;;;;2.80;2.25;;;26.90;50.90;;;;;;936334;150;27474;-75
2022/08/31 11:07:29;;;;;;;4.10;2.55;;;26.90;51.00;;;;;;935793;150;27352;-76
2022/08/31 11:10:21;;;;;;;2.72;2.50;;;27.00;51.10;;;;;;935440;151;27379;-76
2022/08/31 11:12:48;;;;;;;2.10;1.90;;;27.10;51.10;;;;;;935759;150;27370;-76
2022/08/31 11:15:27;;;;;;;2.60;2.40;;;27.10;50.90;;;;;;935916;150;27466;-75
2022/08/31 11:18:19;;;;;;;2.70;2.27;;;27.20;50.80;;;;;;936210;150;27682;-76
2022/08/31 11:20:58;;;;;;;2.27;2.08;;;27.30;50.70;;;;;;935853;150;27452;-76
2022/08/31 11:23:25;;;;;;;3.05;2.17;;;27.40;50.70;;;;;;934253;151;27363;-76
2022/08/31 11:26:27;;;;;;;3.22;2.33;;;27.60;50.70;;;;;;934997;151;27811;-76
2022/08/31 11:28:54;;;;;;;2.90;2.27;;;27.70;50.70;;;;;;900871;155;27412;-76
2022/08/31 11:31:23;;;;;;;2.52;2.12;;;28.00;50.60;;;;;;886303;158;27343;-76
2022/08/31 11:33:50;;;;;;;2.33;2.10;;;28.10;50.50;;;;;;886442;155;27489;-76
2022/08/31 11:36:41;;;;;;;3.85;2.47;;;28.40;50.30;;;;;;919561;153;27363;-76
2022/08/31 11:39:07;;;;;;;2.60;2.40;;;28.60;50.10;;;;;;935759;151;27427;-76
2022/08/31 11:41:38;;;;;;;3.65;2.25;;;28.80;49.60;;;;;;925808;151;27506;-76
2022/08/31 11:44:03;;;;;;;3.45;2.10;;;29.10;49.10;;;;;;920161;152;27354;-76
2022/08/31 11:46:33;;;;;;;3.08;2.22;;;29.20;48.70;;;;;;906814;155;27519;-76
2022/08/31 11:48:59;;;;;;;2.50;2.10;;;29.40;49.00;;;;;;906601;155;27454;-76
2022/08/31 11:51:31;;;;;;;1.87;1.77;;;29.50;48.20;;;;;;906189;155;27508;-76
2022/08/31 11:53:55;;;;;;;2.35;2.15;;;29.80;48.20;;;;;;906941;155;28147;-76
2022/08/31 11:56:40;;;;;;;4.60;2.17;;;30.00;48.00;;;;;;907575;155;27364;-76
2022/08/31 11:59:34;;;;;;;3.20;2.00;;;30.20;47.90;;;;;;906515;155;27801;-76
2022/08/31 12:02:18;;;;;;;2.67;2.20;;;30.40;47.50;;;;;;905573;155;27439;-76
2022/08/31 12:04:46;;;;;;;2.83;2.12;;;30.60;47.00;;;;;;903616;155;27483;-76
2022/08/31 12:07:25;;;;;;;2.40;2.20;;;30.70;46.70;;;;;;901801;156;27529;-76
2022/08/31 12:10:18;;;;;;;3.35;2.12;;;30.80;46.20;;;;;;897068;156;27419;-76
2022/08/31 12:12:50;;;;;;;2.30;1.80;;;30.90;46.10;;;;;;901522;156;27420;-76
2022/08/31 12:15:35;;;;;;;2.05;1.95;;;30.90;45.80;;;;;;921473;153;27363;-76
2022/08/31 12:18:39;;;;;;;2.25;2.15;;;30.90;45.40;;;;;;901781;156;27376;-76
2022/08/31 12:24:18;;;;;;;1.87;1.77;;;31.10;45.10;;;;;;902385;156;27501;-76
2022/08/31 12:27:09;;;;;;;2.80;2.20;;;31.10;45.00;;;;;;902437;156;27424;-76
2022/08/31 12:29:35;;;;;;;1.77;1.67;;;31.10;44.80;;;;;;901880;156;27744;-76
2022/08/31 12:32:39;;;;;;;2.10;2.00;;;31.20;44.80;;;;;;901306;156;27510;-76
2022/08/31 12:35:18;;;;;;;2.00;1.90;;;31.30;44.50;;;;;;922216;153;27371;-76
2022/08/31 12:37:44;;;;;;;3.85;2.33;;;31.40;44.40;;;;;;914882;153;27393;-76
2022/08/31 12:40:16;;;;;;;2.00;1.90;;;31.40;44.20;;;;;;915377;154;27468;-76
2022/08/31 12:43:11;;;;;;;2.40;2.20;;;31.50;43.90;;;;;;915427;153;27427;-76
2022/08/31 12:45:52;;;;;;;2.10;2.00;;;31.60;43.30;;;;;;915324;154;27396;-76
2022/08/31 12:48:43;;;;;;;2.12;2.02;;;31.50;43.10;;;;;;899864;156;27405;-76
2022/08/31 12:51:18;;;;;;;3.83;1.87;;;31.40;43.50;;;;;;899932;156;27541;-75
2022/08/31 12:54:03;;;;;;;2.25;2.10;;;31.30;43.00;;;;;;899920;156;27433;-75
2022/08/31 12:56:54;;;;;;;2.37;2.17;;;31.20;43.00;;;;;;899174;156;28163;-76
2022/08/31 12:59:38;;;;;;;2.52;2.27;;;31.00;42.90;;;;;;899584;156;27394;-76
2022/08/31 13:02:05;;;;;;;1.90;1.80;;;30.90;43.00;;;;;;899645;156;27390;-75
2022/08/31 13:04:32;;;;;;;2.00;1.90;;;30.80;43.00;;;;;;898906;156;27486;-76
2022/08/31 13:06:58;;;;;;;2.08;1.98;;;30.80;43.10;;;;;;899841;156;27352;-76
2022/08/31 13:09:25;;;;;;;1.90;1.80;;;30.70;42.90;;;;;;897107;156;27415;-76
2022/08/31 13:11:51;;;;;;;2.10;1.95;;;30.70;43.00;;;;;;896350;156;27528;-76
2022/08/31 13:14:23;;;;;;;3.72;1.92;;;30.70;42.90;;;;;;900033;156;27335;-76
2022/08/31 13:16:53;;;;;;;1.87;1.77;;;30.70;42.90;;;;;;898770;156;27406;-75
2022/08/31 13:19:22;;;;;;;2.15;2.05;;;30.70;43.00;;;;;;898660;156;27406;-76
2022/08/31 13:21:49;;;;;;;2.80;2.10;;;30.60;42.90;;;;;;900038;156;27413;-76
2022/08/31 13:24:16;;;;;;;1.72;1.62;;;30.60;42.70;;;;;;899020;156;27483;-76
2022/08/31 13:26:44;;;;;;;2.00;1.90;;;30.60;42.50;;;;;;897378;156;27463;-75
2022/08/31 13:29:09;;;;;;;1.90;1.80;;;30.70;42.50;;;;;;899033;156;27389;-76
2022/08/31 13:31:35;;;;;;;1.90;1.80;;;30.60;42.30;;;;;;899004;156;27477;-76